createdAt,value
2023-05-06T00:02:04.477Z,5.13
2023-05-06T00:04:51.639Z,7.33
2023-05-06T00:07:40.078Z,7.37
2023-05-06T00:10:27.085Z,6.23
2023-05-06T00:13:14.227Z,6.80
2023-05-06T00:16:01.416Z,5.90
2023-05-06T00:18:48.588Z,5.67
2023-05-06T00:21:35.657Z,4.90
2023-05-06T00:24:23.796Z,5.97
2023-05-06T00:27:10.739Z,4.87
2023-05-06T00:29:58.755Z,5.73
2023-05-06T00:32:45.824Z,5.53
2023-05-06T00:35:32.954Z,6.23
2023-05-06T00:38:20.587Z,6.53
2023-05-06T00:41:09.032Z,4.90
2023-05-06T00:43:55.671Z,5.27
2023-05-06T00:46:43.506Z,3.90
2023-05-06T00:49:31.603Z,7.90
2023-05-06T00:52:20.045Z,6.97
2023-05-06T00:55:07.935Z,4.77
2023-05-06T00:57:56.544Z,4.90
2023-05-06T01:00:43.512Z,4.03
2023-05-06T01:03:30.347Z,4.87
2023-05-06T01:06:25.477Z,5.60
2023-05-06T01:09:20.917Z,4.13
2023-05-06T01:12:11.485Z,4.33
2023-05-06T01:15:08.842Z,5.00
2023-05-06T01:17:58.442Z,4.13
2023-05-06T01:20:49.907Z,3.00
2023-05-06T01:24:02.464Z,3.00
2023-05-06T01:26:49.338Z,3.00
2023-05-06T01:29:39.000Z,3.17
2023-05-06T01:32:47.893Z,3.80
2023-05-06T01:35:41.971Z,3.40
2023-05-06T01:38:35.933Z,3.90
2023-05-06T01:41:26.187Z,3.63
2023-05-06T01:44:13.538Z,3.20
2023-05-06T01:47:01.537Z,2.90
2023-05-06T01:49:49.053Z,2.90
2023-05-06T01:52:35.866Z,2.80
2023-05-06T01:55:23.019Z,4.90
2023-05-06T01:58:11.007Z,5.93
2023-05-06T02:00:57.986Z,3.10
2023-05-06T02:03:44.771Z,3.60
2023-05-06T02:06:32.334Z,3.70
2023-05-06T02:09:19.410Z,3.40
2023-05-06T02:12:06.921Z,4.77
2023-05-06T02:14:56.550Z,3.97
2023-05-06T02:17:43.546Z,5.73
2023-05-06T02:20:30.691Z,3.17
2023-05-06T02:23:17.677Z,5.33
2023-05-06T02:26:05.277Z,3.57
2023-05-06T02:28:52.125Z,3.83
2023-05-06T02:31:40.607Z,4.33
2023-05-06T02:34:27.262Z,5.40
2023-05-06T02:37:14.387Z,3.67
2023-05-06T02:40:01.598Z,3.87
2023-05-06T02:42:48.469Z,5.20
2023-05-06T02:45:35.451Z,4.67
2023-05-06T02:48:23.856Z,5.30
2023-05-06T02:51:10.643Z,3.40
2023-05-06T02:53:58.023Z,4.77
2023-05-06T02:56:46.375Z,2.93
2023-05-06T02:59:33.423Z,4.77
2023-05-06T03:02:22.610Z,4.27
2023-05-06T03:05:11.886Z,3.27
2023-05-06T03:07:59.725Z,3.30
2023-05-06T03:10:46.463Z,3.53
2023-05-06T03:13:33.295Z,2.30
2023-05-06T03:16:20.502Z,2.90
2023-05-06T03:19:07.380Z,4.10
2023-05-06T03:21:56.500Z,4.73
2023-05-06T03:24:43.437Z,4.67
2023-05-06T03:27:33.805Z,2.50
2023-05-06T03:30:21.062Z,2.33
2023-05-06T03:33:08.058Z,1.90
2023-05-06T03:35:55.391Z,2.03
2023-05-06T03:38:44.315Z,2.40
2023-05-06T03:41:31.553Z,1.93
2023-05-06T03:44:18.619Z,2.20
2023-05-06T03:47:06.406Z,2.37
2023-05-06T03:49:53.492Z,2.13
2023-05-06T03:52:40.712Z,1.43
2023-05-06T03:55:29.429Z,1.70
2023-05-06T03:58:16.261Z,2.20
2023-05-06T04:01:03.224Z,1.60
2023-05-06T04:03:50.132Z,2.03
2023-05-06T04:06:37.840Z,2.20
2023-05-06T04:09:25.206Z,2.50
2023-05-06T04:12:13.317Z,2.23
2023-05-06T04:15:00.348Z,1.50
2023-05-06T04:17:50.360Z,2.73
2023-05-06T04:20:37.050Z,1.90
2023-05-06T04:23:23.957Z,1.57
2023-05-06T04:26:11.865Z,1.57
2023-05-06T04:29:01.002Z,2.23
2023-05-06T04:31:48.237Z,1.87
2023-05-06T04:34:36.389Z,2.43
2023-05-06T04:38:39.586Z,2.30
2023-05-06T04:41:26.947Z,3.30
2023-05-06T04:44:15.351Z,3.13
2023-05-06T04:47:02.369Z,3.17
2023-05-06T04:49:49.664Z,4.03
2023-05-06T04:52:37.590Z,2.33
2023-05-06T04:55:24.434Z,2.67
2023-05-06T04:58:11.694Z,2.57
2023-05-06T05:01:02.684Z,2.70
2023-05-06T05:03:49.972Z,2.90
2023-05-06T05:06:36.775Z,4.70
2023-05-06T05:09:23.962Z,4.67
2023-05-06T05:12:11.118Z,3.30
2023-05-06T05:14:58.909Z,4.60
2023-05-06T05:17:47.912Z,3.33
2023-05-06T05:20:35.255Z,3.47
2023-05-06T05:23:22.571Z,4.77
2023-05-06T05:26:09.555Z,4.23
2023-05-06T05:28:56.790Z,3.70
2023-05-06T05:31:44.067Z,3.07
2023-05-06T05:34:32.730Z,3.73
2023-05-06T05:37:19.917Z,3.57
2023-05-06T05:40:08.540Z,3.73
2023-05-06T05:42:55.857Z,5.80
2023-05-06T05:45:43.165Z,3.80
2023-05-06T05:48:31.108Z,2.90
2023-05-06T05:51:19.671Z,3.60
2023-05-06T05:54:06.988Z,5.47
2023-05-06T05:56:55.340Z,6.20
2023-05-06T05:59:42.119Z,5.23
2023-05-06T06:02:29.062Z,6.73
2023-05-06T06:05:16.223Z,5.57
2023-05-06T06:08:07.888Z,5.00
2023-05-06T06:10:54.823Z,3.83
2023-05-06T06:13:41.487Z,4.70
2023-05-06T06:16:28.665Z,4.33
2023-05-06T06:19:15.992Z,4.73
2023-05-06T06:22:04.420Z,6.37
2023-05-06T06:24:53.917Z,4.60
2023-05-06T06:27:41.223Z,3.57
2023-05-06T06:30:28.553Z,3.60
2023-05-06T06:33:15.590Z,3.80
2023-05-06T06:36:02.738Z,4.40
2023-05-06T06:38:49.551Z,4.73
2023-05-06T06:41:38.010Z,3.00
2023-05-06T06:44:25.064Z,4.23
2023-05-06T06:47:11.932Z,3.83
2023-05-06T06:49:58.804Z,4.03
2023-05-06T06:52:46.070Z,3.50
2023-05-06T06:55:33.276Z,3.60
2023-05-06T06:58:21.954Z,3.93
2023-05-06T07:01:08.919Z,3.57
2023-05-06T07:03:56.229Z,4.30
2023-05-06T07:06:46.249Z,2.70
2023-05-06T07:09:35.015Z,3.47
2023-05-06T07:12:24.534Z,2.40
2023-05-06T07:15:13.569Z,3.37
2023-05-06T07:18:01.007Z,3.50
2023-05-06T07:20:48.172Z,2.55
2023-05-06T07:23:35.025Z,2.50
2023-05-06T07:26:22.557Z,2.53
2023-05-06T07:29:09.812Z,2.50
2023-05-06T07:32:01.449Z,2.50
2023-05-06T07:34:48.331Z,2.00
2023-05-06T07:37:38.436Z,1.90
2023-05-06T07:40:26.034Z,2.00
2023-05-06T07:43:12.916Z,2.08
2023-05-06T07:46:02.957Z,1.67
2023-05-06T07:48:51.516Z,1.80
2023-05-06T07:51:38.616Z,1.45
2023-05-06T07:54:25.670Z,1.63
2023-05-06T07:57:14.367Z,1.73
2023-05-06T08:00:01.576Z,1.50
2023-05-06T08:02:48.804Z,1.70
2023-05-06T08:05:37.333Z,1.60
2023-05-06T08:08:27.818Z,1.52
2023-05-06T08:11:14.630Z,1.25
2023-05-06T08:14:01.845Z,1.45
2023-05-06T08:16:48.923Z,1.40
2023-05-06T08:19:36.060Z,1.02
2023-05-06T08:22:24.589Z,1.30
2023-05-06T08:25:12.188Z,1.17
2023-05-06T08:27:59.467Z,1.05
2023-05-06T08:30:48.613Z,1.40
2023-05-06T08:33:36.167Z,1.10
2023-05-06T08:36:23.741Z,1.45
2023-05-06T08:39:12.629Z,1.30
2023-05-06T08:42:02.091Z,1.20
2023-05-06T08:44:49.205Z,1.50
2023-05-06T08:47:36.026Z,1.40
2023-05-06T08:50:23.252Z,1.08
2023-05-06T08:53:11.704Z,1.33
2023-05-06T08:56:04.204Z,1.25
2023-05-06T08:58:53.022Z,1.25
2023-05-06T09:01:40.540Z,1.25
2023-05-06T09:04:30.705Z,1.40
2023-05-06T09:07:18.709Z,1.00
2023-05-06T09:10:08.293Z,1.25
2023-05-06T09:12:58.430Z,1.20
2023-05-06T09:15:47.381Z,1.30
2023-05-06T09:18:37.625Z,1.45
2023-05-06T09:21:33.243Z,1.13
2023-05-06T09:24:21.400Z,1.25
2023-05-06T09:27:10.626Z,1.27
2023-05-06T09:30:04.962Z,1.20
2023-05-06T09:32:54.418Z,1.20
2023-05-06T09:35:43.550Z,1.30
2023-05-06T09:38:30.461Z,1.10
2023-05-06T09:41:21.013Z,1.33
2023-05-06T09:44:08.288Z,1.30
2023-05-06T09:46:58.064Z,1.48
2023-05-06T09:49:45.549Z,1.17
2023-05-06T09:52:32.806Z,1.35
2023-05-06T09:55:21.050Z,1.30
2023-05-06T09:58:10.150Z,2.13
2023-05-06T10:00:57.450Z,1.50
2023-05-06T10:03:47.438Z,1.10
2023-05-06T10:06:36.915Z,1.17
2023-05-06T10:09:26.045Z,1.02
2023-05-06T10:12:14.803Z,1.20
2023-05-06T10:15:02.107Z,1.10
2023-05-06T10:17:52.852Z,1.30
2023-05-06T10:20:43.038Z,2.00
2023-05-06T10:23:37.019Z,1.50
2023-05-06T10:26:25.027Z,1.30
2023-05-06T10:29:16.288Z,1.30
2023-05-06T10:32:04.763Z,1.20
2023-05-06T10:34:56.939Z,1.33
2023-05-06T10:37:50.158Z,1.60
2023-05-06T10:40:37.726Z,1.40
2023-05-06T10:43:29.160Z,1.60
2023-05-06T10:46:18.775Z,1.38
2023-05-06T10:49:20.178Z,1.63
2023-05-06T10:52:15.212Z,1.48
2023-05-06T10:55:27.545Z,1.20
2023-05-06T10:58:20.273Z,1.75
2023-05-06T11:01:07.317Z,1.20
2023-05-06T11:03:54.328Z,1.20
2023-05-06T11:06:44.592Z,1.70
2023-05-06T11:09:33.865Z,1.58
2023-05-06T11:12:23.357Z,1.70
2023-05-06T11:15:38.595Z,1.42
2023-05-06T11:18:45.296Z,1.67
2023-05-06T11:21:40.171Z,1.52
2023-05-06T11:24:28.901Z,1.17
2023-05-06T11:27:19.699Z,1.55
2023-05-06T11:30:14.495Z,1.63
2023-05-06T11:33:05.918Z,1.85
2023-05-06T11:35:53.285Z,1.90
2023-05-06T11:38:44.005Z,1.40
2023-05-06T11:41:30.796Z,1.70
2023-05-06T11:44:31.882Z,1.42
2023-05-06T11:47:23.851Z,1.60
2023-05-06T11:50:11.604Z,1.52
2023-05-06T11:53:00.029Z,1.45
2023-05-06T11:55:48.038Z,1.80
2023-05-06T11:58:35.652Z,1.83
2023-05-06T12:01:22.984Z,1.40
2023-05-06T12:04:12.129Z,1.55
2023-05-06T12:06:59.544Z,1.70
2023-05-06T12:09:49.771Z,1.80
2023-05-06T12:12:37.154Z,1.85
2023-05-06T12:15:24.240Z,1.60
2023-05-06T12:18:12.770Z,1.85
2023-05-06T12:21:38.579Z,1.90
2023-05-06T12:24:31.109Z,1.90
2023-05-06T12:27:30.955Z,1.73
2023-05-06T12:30:29.682Z,1.58
2023-05-06T12:33:16.851Z,1.52
2023-05-06T12:36:08.505Z,1.83
2023-05-06T12:38:57.036Z,1.80
2023-05-06T12:41:48.066Z,1.73
2023-05-06T12:44:36.857Z,1.60
2023-05-06T12:47:25.601Z,1.63
2023-05-06T12:50:13.014Z,1.67
2023-05-06T12:53:00.612Z,1.70
2023-05-06T12:55:48.216Z,2.00
2023-05-06T12:58:37.808Z,1.60
2023-05-06T13:01:25.033Z,1.65
2023-05-06T13:04:13.033Z,1.85
2023-05-06T13:07:00.003Z,1.60
2023-05-06T13:09:47.148Z,2.08
2023-05-06T13:12:36.261Z,1.77
2023-05-06T13:15:27.913Z,1.42
2023-05-06T13:18:14.897Z,1.73
2023-05-06T13:21:02.343Z,1.42
2023-05-06T13:23:52.135Z,1.50
2023-05-06T13:26:39.150Z,1.67
2023-05-06T13:29:26.470Z,2.00
2023-05-06T13:32:14.766Z,1.65
2023-05-06T13:35:01.720Z,1.70
2023-05-06T13:37:48.880Z,1.70
2023-05-06T13:40:35.796Z,1.73
2023-05-06T13:43:24.718Z,1.70
2023-05-06T13:46:11.818Z,1.83
2023-05-06T13:49:00.103Z,1.50
2023-05-06T13:51:47.246Z,1.30
2023-05-06T13:54:34.487Z,1.73
2023-05-06T13:57:21.567Z,1.30
2023-05-06T14:00:11.132Z,1.27
2023-05-06T14:02:58.217Z,1.90
2023-05-06T14:05:46.604Z,1.60
2023-05-06T14:08:33.939Z,1.80
2023-05-06T14:11:21.065Z,1.98
2023-05-06T14:14:13.913Z,1.70
2023-05-06T14:17:00.827Z,1.75
2023-05-06T14:19:48.006Z,1.60
2023-05-06T14:22:36.841Z,1.45
2023-05-06T14:25:28.115Z,1.50
2023-05-06T14:28:15.910Z,1.45
2023-05-06T14:31:02.628Z,1.55
2023-05-06T14:33:49.269Z,1.60
2023-05-06T14:36:35.946Z,1.63
2023-05-06T14:39:24.526Z,1.73
2023-05-06T14:42:11.487Z,1.38
2023-05-06T14:44:58.631Z,1.60
2023-05-06T14:47:46.091Z,1.60
2023-05-06T14:50:33.374Z,1.52
2023-05-06T14:53:20.450Z,1.65
2023-05-06T14:56:11.031Z,1.60
2023-05-06T14:58:57.969Z,1.50
2023-05-06T15:01:45.261Z,1.60
2023-05-06T15:04:32.452Z,1.52
2023-05-06T15:07:21.631Z,1.63
2023-05-06T15:10:12.272Z,1.52
2023-05-06T15:13:01.043Z,1.30
2023-05-06T15:15:48.233Z,1.92
2023-05-06T15:18:34.869Z,1.85
2023-05-06T15:21:21.483Z,1.50
2023-05-06T15:24:09.077Z,1.50
2023-05-06T15:26:56.388Z,1.85
2023-05-06T15:29:44.779Z,1.70
2023-05-06T15:32:31.976Z,2.45
2023-05-06T15:35:18.591Z,1.80
2023-05-06T15:38:05.567Z,1.48
2023-05-06T15:40:53.267Z,1.65
2023-05-06T15:43:40.201Z,1.40
2023-05-06T15:46:29.250Z,1.80
2023-05-06T15:52:06.151Z,1.63
2023-05-06T15:54:57.704Z,1.65
2023-05-06T15:57:46.573Z,1.67
2023-05-06T16:00:33.699Z,1.60
2023-05-06T16:03:22.461Z,1.50
2023-05-06T16:06:10.790Z,1.70
2023-05-06T16:08:59.469Z,1.70
2023-05-06T16:11:47.992Z,1.70
2023-05-06T16:14:35.131Z,1.42
2023-05-06T16:17:21.871Z,1.60
2023-05-06T16:20:11.737Z,1.70
2023-05-06T16:22:58.854Z,1.55
2023-05-06T16:25:46.046Z,1.70
2023-05-06T16:28:32.768Z,1.40
2023-05-06T16:31:20.068Z,1.48
2023-05-06T16:34:06.920Z,1.55
2023-05-06T16:36:55.174Z,1.90
2023-05-06T16:39:42.101Z,1.40
2023-05-06T16:42:28.906Z,1.48
2023-05-06T16:45:15.948Z,1.52
2023-05-06T16:48:03.031Z,1.60
2023-05-06T16:50:50.270Z,1.40
2023-05-06T16:53:38.242Z,1.58
2023-05-06T16:56:28.186Z,1.60
2023-05-06T16:59:21.928Z,1.60
2023-05-06T17:02:09.817Z,1.50
2023-05-06T17:04:56.989Z,1.67
2023-05-06T17:07:43.598Z,1.60
2023-05-06T17:10:31.753Z,1.70
2023-05-06T17:13:18.948Z,1.75
2023-05-06T17:16:06.262Z,1.38
2023-05-06T17:18:53.061Z,1.58
2023-05-06T17:21:40.558Z,1.38
2023-05-06T17:24:27.531Z,1.27
2023-05-06T17:27:15.793Z,1.50
2023-05-06T17:30:02.315Z,1.48
2023-05-06T17:32:49.206Z,1.58
2023-05-06T17:35:36.143Z,1.67
2023-05-06T17:38:22.977Z,1.55
2023-05-06T17:41:10.038Z,1.27
2023-05-06T17:43:58.298Z,1.50
2023-05-06T17:46:45.816Z,1.35
2023-05-06T17:49:34.401Z,1.67
2023-05-06T17:52:21.834Z,1.33
2023-05-06T17:55:16.238Z,1.80
2023-05-06T17:58:04.078Z,1.60
2023-05-06T18:00:52.371Z,1.50
2023-05-06T18:03:40.803Z,1.40
2023-05-06T18:06:31.198Z,1.52
2023-05-06T18:09:18.042Z,1.58
2023-05-06T18:12:05.251Z,1.65
2023-05-06T18:14:52.011Z,1.60
2023-05-06T18:17:40.678Z,1.77
2023-05-06T18:20:28.465Z,1.40
2023-05-06T18:23:15.280Z,1.60
2023-05-06T18:26:04.368Z,1.45
2023-05-06T18:28:51.221Z,1.40
2023-05-06T18:31:38.235Z,1.67
2023-05-06T18:34:26.576Z,1.60
2023-05-06T18:37:13.628Z,1.67
2023-05-06T18:40:00.789Z,1.38
2023-05-06T18:42:48.616Z,1.58
2023-05-06T18:45:35.409Z,1.50
2023-05-06T18:48:22.614Z,2.00
2023-05-06T18:51:15.863Z,1.80
2023-05-06T18:54:02.623Z,1.73
2023-05-06T18:56:49.169Z,1.60
2023-05-06T18:59:36.208Z,1.60
2023-05-06T19:02:22.973Z,1.75
2023-05-06T19:05:11.893Z,2.13
2023-05-06T19:08:00.258Z,1.83
2023-05-06T19:10:47.654Z,2.22
2023-05-06T19:13:34.678Z,2.53
2023-05-06T19:16:23.721Z,2.28
2023-05-06T19:19:11.326Z,2.10
2023-05-06T19:21:58.985Z,1.70
2023-05-06T19:24:46.869Z,2.10
2023-05-06T19:27:33.541Z,2.73
2023-05-06T19:30:20.965Z,2.53
2023-05-06T19:33:08.110Z,3.30
2023-05-06T19:35:55.399Z,2.37
2023-05-06T19:38:41.966Z,2.40
2023-05-06T19:41:31.426Z,2.10
2023-05-06T19:44:18.199Z,2.47
2023-05-06T19:47:05.221Z,3.03
2023-05-06T19:49:52.385Z,4.83
2023-05-06T19:52:39.393Z,2.40
2023-05-06T19:55:27.065Z,2.70
2023-05-06T19:58:17.404Z,2.20
2023-05-06T20:01:04.207Z,2.30
2023-05-06T20:03:51.247Z,2.57
2023-05-06T20:06:37.922Z,2.60
2023-05-06T20:09:24.373Z,1.80
2023-05-06T20:12:11.138Z,1.80
2023-05-06T20:14:59.472Z,2.13
2023-05-06T20:17:46.658Z,2.47
2023-05-06T20:20:35.995Z,2.13
2023-05-06T20:23:23.421Z,2.67
2023-05-06T20:26:10.536Z,2.60
2023-05-06T20:28:57.300Z,2.50
2023-05-06T20:31:47.065Z,2.43
2023-05-06T20:34:34.259Z,2.40
2023-05-06T20:37:21.437Z,2.93
2023-05-06T20:40:10.843Z,2.27
2023-05-06T20:42:57.544Z,2.50
2023-05-06T20:45:44.471Z,1.90
2023-05-06T20:48:32.898Z,2.37
2023-05-06T20:51:20.133Z,2.30
2023-05-06T20:54:07.328Z,2.93
2023-05-06T20:56:54.560Z,2.20
2023-05-06T20:59:41.481Z,2.77
2023-05-06T21:02:32.901Z,2.83
2023-05-06T21:05:23.073Z,2.20
2023-05-06T21:08:10.341Z,1.80
2023-05-06T21:10:57.855Z,2.10
2023-05-06T21:13:45.176Z,2.03
2023-05-06T21:16:32.811Z,2.03
2023-05-06T21:19:19.964Z,2.07
2023-05-06T21:22:10.107Z,2.43
2023-05-06T21:24:57.199Z,3.63
2023-05-06T21:27:45.368Z,3.20
2023-05-06T21:30:32.605Z,3.00
2023-05-06T21:33:19.550Z,2.13
2023-05-06T21:36:06.940Z,2.00
2023-05-06T21:39:06.597Z,2.10
2023-05-06T21:41:53.573Z,2.57
2023-05-06T21:44:40.676Z,2.27
2023-05-06T21:47:28.082Z,2.67
2023-05-06T21:50:15.785Z,2.10
2023-05-06T21:53:03.665Z,2.53
2023-05-06T21:55:52.468Z,2.17
2023-05-06T21:58:39.786Z,1.97
2023-05-06T22:01:30.174Z,2.30
2023-05-06T22:04:18.814Z,2.63
2023-05-06T22:07:05.669Z,2.53
2023-05-06T22:09:52.528Z,2.20
2023-05-06T22:12:41.085Z,2.23
2023-05-06T22:15:28.173Z,1.80
2023-05-06T22:18:15.347Z,2.50
2023-05-06T22:21:03.469Z,2.40
2023-05-06T22:23:50.213Z,2.23
2023-05-06T22:26:37.263Z,2.40
2023-05-06T22:29:25.823Z,2.27
2023-05-06T22:32:13.063Z,2.33
2023-05-06T22:34:59.998Z,2.17
2023-05-06T22:37:46.964Z,2.20
2023-05-06T22:40:34.269Z,2.33
2023-05-06T22:43:20.896Z,2.37
2023-05-06T22:46:09.199Z,2.20
2023-05-06T22:48:55.989Z,2.30
2023-05-06T22:51:43.541Z,1.87
2023-05-06T22:54:32.337Z,1.90
2023-05-06T22:57:22.846Z,2.00
2023-05-06T23:00:12.646Z,1.80
2023-05-06T23:03:01.277Z,1.90
2023-05-06T23:05:48.478Z,2.23
2023-05-06T23:08:35.583Z,2.33
2023-05-06T23:11:22.659Z,2.27
2023-05-06T23:14:09.622Z,2.00
2023-05-06T23:16:56.520Z,2.37
2023-05-06T23:19:45.933Z,2.10
2023-05-06T23:22:33.006Z,1.90
2023-05-06T23:25:20.042Z,2.10
2023-05-06T23:28:07.306Z,1.90
2023-05-06T23:30:54.334Z,2.43
2023-05-06T23:33:42.370Z,1.90
2023-05-06T23:36:30.864Z,2.00
2023-05-06T23:39:17.725Z,2.17
2023-05-06T23:42:05.052Z,2.27
2023-05-06T23:44:52.442Z,1.90
2023-05-06T23:47:39.316Z,2.10
2023-05-06T23:50:28.635Z,2.50
2023-05-06T23:53:17.192Z,2.43
2023-05-06T23:56:04.000Z,1.90
2023-05-06T23:58:50.883Z,2.33
